Aérodrome :
LOGIN :

S'inscrire | Disclaimer

   EN    FR    IT 

 










Légende :    VFR   VFR Marginal   IFR   IFR Intensif   IFR Très Intensif
Visi : 
Plafond : 
>= 8 km
>= 3000ft
5 à 8 km
1000 à 3000 ft
1500m à 5 km
500 à 1000 ft
800 à 1500m
200 à 500 ft
< 800m
< 200 ft
Symboles :   Orages  Brouillard  Fortes neiges  Fortes précipitations  Vent > 20 kt
SIGMETs :   Divers  Orages  Givrage  Turbulence  Onde Orograph.  Cendres Volcan.







- Altitude de l'aérodrome : 726 ft
- Code IATA : DIJ
- Voir les cartes d'approche


LFSD - Dijon

DERNIER METAR :
  • 230800Z AUTO 18003KT 1700 -SN BR BKN004 OVC009 00/M00 Q0995

METARs EXPIRÉS :
  • 230730Z AUTO 18004KT 2000 -SNRA BR OVC004 00/M00 Q0995
  • 230700Z AUTO 17004KT 3200 -SN BR OVC004 M00/M00 Q0995
  • 230630Z AUTO 18004KT 150V210 3000 -SN BR OVC004 M00/M00 Q0995
  • 230600Z AUTO 16005KT 3200 -SN BR OVC004 M00/M01 Q0995
  • 230530Z AUTO 16004KT 4100 -SN BR OVC004 M00/M01 Q0995
  • 230500Z AUTO 16005KT 2500 SN BR OVC004 M00/M01 Q0996

Prévision TAF périmée.
Pas de NOTAMs connus pour ce terrain.



MET'MAP, la Météo Aéronautique d'un coup d'oeil ! - Copyright ORBIFLY Décembre 2007 - Disclaimer

ORBIFLY MET'MAP TEAM :

Programmation & Développement : Alexandra Zaïnal
Conception & Développement : Baudouin d'Aumeries
Co-Programmation & Développement : Marc-Olivier Méhu
Soutien technique & logistique : Manuel Goepfert

Contact : metmap@orbifly.com




SOURCES & CREDITS :

   NOAA